Terminal Aerodrome Forecast
Issued by NWS Huntsville, AL

Current Version | Previous Version | Text Only | Print | Product List | Glossary On
Versions: 1 2 3 4 5 6 7 8 9 10 11 12 13 14 15 16 17 18 19 20 21 22 23 24 25 26 27
000
FTUS44 KHUN 251727
TAFMSL
TAF
KMSL 251727Z 2518/2618 26010KT P6SM BKN027
     FM251900 24014G23KT P6SM VCTS BKN030CB
     FM260000 23007KT P6SM SCT030
     FM261400 33005KT P6SM OVC015=

USA.gov is the U.S. government's official web portal to all federal, state and local government web resources and services.